This is the latest recevied weather packets stored in our database for station/object HK6LRQ-25. If no packets are shown the sender has not sent any weather packets the latest 10 day(s).
| Time | Temp. | Humidity | Pressure | Rain* | Wind** | Luminosity | Snow |
|---|---|---|---|---|---|---|---|
| 1788146665 | 55° F | 90% | 761.3 mmHg | 0 in | - | - | - |
| 1788144864 | 56° F | 91% | 761.3 mmHg | 0 in | - | - | - |
| 1788143063 | 57° F | 89% | 761.3 mmHg | 0 in | - | - | - |
| 1788141262 | 57° F | 91% | 761.3 mmHg | 0 in | - | - | - |
| 1788139461 | 58° F | 90% | 760.6 mmHg | 0.01 in | - | - | - |
| 1788137660 | 58° F | 91% | 760.6 mmHg | 0.01 in | - | - | - |
| 1788135859 | 59° F | 89% | 759.1 mmHg | 0.01 in | - | - | - |
| 1788134058 | 60° F | 88% | 759.1 mmHg | 0 in | - | - | - |
| 1788132257 | 61° F | 88% | 758.3 mmHg | 0 in | - | - | - |
| 1788130456 | 62° F | 87% | 758.3 mmHg | 0 in | - | - | - |
| 1788128655 | 63° F | 86% | 757.6 mmHg | 0 in | - | - | - |
| 1788126855 | 63° F | 85% | 757.6 mmHg | 0 in | - | - | - |
| 1788125053 | 64° F | 86% | 757.6 mmHg | 0 in | - | - | - |
| 1788123253 | 65° F | 85% | 757.6 mmHg | 0 in | - | - | - |
| 1788121451 | 65° F | 86% | 758.3 mmHg | 0 in | - | - | - |
| 1788119644 | 71° F | 86% | 758.3 mmHg | 0 in | - | - | - |
| 1788117843 | 77° F | 86% | 759.1 mmHg | 0 in | - | - | - |
| 1788116042 | 64° F | 83% | 759.1 mmHg | 0 in | - | - | - |
| 1788114241 | 65° F | 87% | 760.6 mmHg | 0 in | - | - | - |
| 1788112440 | 65° F | 87% | 760.6 mmHg | 0 in | - | - | - |
| 1788110639 | 65° F | 87% | 761.3 mmHg | 0 in | - | - | - |
| 1788108838 | 66° F | 83% | 760.6 mmHg | 0 in | - | - | - |
| 1788107037 | 66° F | 88% | 761.3 mmHg | 0 in | - | - | - |
| 1788105236 | 66° F | 85% | 761.3 mmHg | 0 in | - | - | - |
| 1788103435 | 65° F | 91% | 762.1 mmHg | 0 in | - | - | - |
* Rain latest hour (hover to see other rain measurements)
** Current wind speed in m/s (hover to see current wind gust speed)